createdAt,value
2023-02-28T00:01:28.826Z,5.13
2023-02-28T00:03:56.980Z,6.72
2023-02-28T00:06:25.148Z,11.18
2023-02-28T00:08:52.934Z,8.15
2023-02-28T00:11:22.609Z,7.50
2023-02-28T00:13:50.471Z,9.48
2023-02-28T00:16:20.515Z,6.85
2023-02-28T00:18:49.468Z,7.57
2023-02-28T00:21:17.552Z,8.93
2023-02-28T00:23:45.835Z,5.93
2023-02-28T00:26:13.792Z,8.35
2023-02-28T00:28:42.879Z,6.93
2023-02-28T00:31:10.664Z,7.03
2023-02-28T00:33:38.466Z,7.43
2023-02-28T00:36:08.391Z,9.95
2023-02-28T00:38:36.149Z,6.53
2023-02-28T00:41:05.945Z,7.13
2023-02-28T00:43:35.205Z,10.85
2023-02-28T00:46:05.689Z,11.20
2023-02-28T00:48:33.760Z,9.25
2023-02-28T00:51:01.761Z,6.00
2023-02-28T00:53:29.836Z,9.23
2023-02-28T00:55:57.630Z,6.18
2023-02-28T00:58:25.333Z,9.35
2023-02-28T01:00:53.711Z,8.35
2023-02-28T01:03:24.463Z,8.00
2023-02-28T01:05:54.223Z,7.47
2023-02-28T01:08:22.188Z,7.00
2023-02-28T01:10:49.958Z,10.77
2023-02-28T01:13:18.579Z,7.03
2023-02-28T01:15:51.144Z,6.75
2023-02-28T01:18:18.954Z,8.98
2023-02-28T01:20:48.161Z,9.05
2023-02-28T01:23:15.929Z,6.07
2023-02-28T01:25:43.721Z,8.60
2023-02-28T01:28:11.460Z,6.00
2023-02-28T01:30:39.156Z,6.70
2023-02-28T01:33:06.854Z,8.93
2023-02-28T01:35:35.071Z,6.53
2023-02-28T01:38:20.402Z,7.05
2023-02-28T01:40:48.921Z,8.70
2023-02-28T01:43:24.239Z,7.18
2023-02-28T01:45:52.845Z,5.57
2023-02-28T01:48:23.102Z,6.65
2023-02-28T01:50:51.691Z,9.00
2023-02-28T01:53:23.818Z,8.55
2023-02-28T01:55:55.026Z,8.18
2023-02-28T01:58:23.324Z,6.07
2023-02-28T02:00:51.438Z,7.90
2023-02-28T02:03:22.361Z,8.27
2023-02-28T02:05:50.181Z,7.57
2023-02-28T02:08:24.316Z,6.75
2023-02-28T02:10:55.109Z,6.30
2023-02-28T02:13:47.395Z,8.35
2023-02-28T02:16:30.204Z,5.70
2023-02-28T02:19:13.417Z,6.47
2023-02-28T02:22:08.179Z,6.30
2023-02-28T02:25:00.816Z,10.20
2023-02-28T02:27:49.807Z,7.30
2023-02-28T02:30:43.145Z,7.85
2023-02-28T02:33:38.377Z,7.05
2023-02-28T02:36:15.055Z,7.20
2023-02-28T02:38:51.749Z,5.00
2023-02-28T02:41:24.657Z,5.85
2023-02-28T02:43:54.982Z,5.03
2023-02-28T02:46:27.649Z,6.88
2023-02-28T02:48:59.378Z,5.25
2023-02-28T02:51:30.325Z,6.90
2023-02-28T02:54:04.170Z,6.65
2023-02-28T02:56:35.377Z,9.48
2023-02-28T02:59:06.343Z,6.25
2023-02-28T03:01:36.826Z,7.78
2023-02-28T03:04:08.850Z,5.63
2023-02-28T03:06:38.123Z,8.30
2023-02-28T03:09:06.436Z,6.35
2023-02-28T03:11:35.046Z,8.15
2023-02-28T03:14:37.470Z,9.35
2023-02-28T03:17:22.953Z,5.82
2023-02-28T03:20:00.836Z,5.68
2023-02-28T03:22:50.589Z,7.13
2023-02-28T03:25:29.110Z,8.27
2023-02-28T03:28:05.556Z,5.75
2023-02-28T03:30:41.623Z,6.45
2023-02-28T03:33:15.027Z,8.27
2023-02-28T03:35:46.592Z,11.80
2023-02-28T03:38:21.563Z,6.28
2023-02-28T03:40:53.145Z,9.30
2023-02-28T03:43:30.258Z,11.95
2023-02-28T03:46:00.970Z,5.82
2023-02-28T03:48:34.865Z,5.65
2023-02-28T03:51:05.384Z,7.18
2023-02-28T03:53:37.728Z,8.27
2023-02-28T03:56:11.359Z,8.27
2023-02-28T03:58:45.315Z,6.75
2023-02-28T04:01:19.001Z,5.55
2023-02-28T04:03:46.841Z,5.68
2023-02-28T04:06:18.815Z,6.45
2023-02-28T04:08:48.179Z,7.05
2023-02-28T04:11:22.363Z,6.57
2023-02-28T04:13:50.348Z,6.88
2023-02-28T04:16:33.393Z,7.97
2023-02-28T04:19:04.025Z,7.90
2023-02-28T04:21:32.174Z,6.43
2023-02-28T04:24:01.773Z,5.47
2023-02-28T04:26:31.857Z,6.78
2023-02-28T04:28:59.640Z,8.20
2023-02-28T04:31:28.017Z,6.90
2023-02-28T04:33:56.153Z,5.30
2023-02-28T04:36:24.219Z,7.38
2023-02-28T04:38:52.428Z,6.45
2023-02-28T04:41:21.745Z,7.78
2023-02-28T04:43:49.435Z,7.57
2023-02-28T04:46:18.237Z,5.78
2023-02-28T04:48:46.607Z,9.05
2023-02-28T04:51:16.136Z,6.32
2023-02-28T04:53:44.921Z,6.47
2023-02-28T04:56:14.255Z,5.72
2023-02-28T04:58:43.781Z,6.43
2023-02-28T05:01:20.540Z,8.27
2023-02-28T05:03:49.056Z,6.72
2023-02-28T05:06:17.355Z,6.28
2023-02-28T05:08:45.231Z,6.18
2023-02-28T05:11:18.429Z,7.43
2023-02-28T05:13:47.948Z,7.15
2023-02-28T05:16:16.077Z,5.32
2023-02-28T05:18:45.571Z,7.32
2023-02-28T05:21:31.704Z,8.57
2023-02-28T05:24:01.657Z,8.95
2023-02-28T05:26:29.851Z,8.55
2023-02-28T05:28:59.106Z,6.45
2023-02-28T05:31:27.065Z,7.15
2023-02-28T05:33:55.032Z,8.27
2023-02-28T05:36:23.244Z,7.63
2023-02-28T05:38:51.698Z,6.55
2023-02-28T05:41:21.243Z,6.75
2023-02-28T05:43:49.678Z,10.23
2023-02-28T05:46:18.964Z,5.70
2023-02-28T05:48:49.264Z,4.78
2023-02-28T05:51:17.555Z,10.32
2023-02-28T05:53:45.430Z,5.93
2023-02-28T05:56:13.122Z,7.15
2023-02-28T05:58:40.831Z,8.05
2023-02-28T06:01:25.464Z,7.55
2023-02-28T06:03:53.855Z,7.95
2023-02-28T06:06:21.518Z,6.68
2023-02-28T06:08:49.281Z,6.72
2023-02-28T06:11:17.015Z,11.48
2023-02-28T06:13:44.755Z,8.02
2023-02-28T06:16:13.783Z,6.13
2023-02-28T06:18:42.893Z,7.63
2023-02-28T06:21:10.643Z,7.95
2023-02-28T06:23:38.431Z,6.63
2023-02-28T06:26:06.635Z,7.03
2023-02-28T06:28:34.482Z,4.03
2023-02-28T06:31:07.261Z,7.50
2023-02-28T06:33:35.208Z,6.07
2023-02-28T06:36:04.753Z,6.13
2023-02-28T06:38:32.696Z,7.07
2023-02-28T06:41:02.047Z,5.57
2023-02-28T06:43:32.321Z,6.78
2023-02-28T06:46:02.518Z,6.85
2023-02-28T06:48:30.483Z,4.97
2023-02-28T06:51:06.160Z,5.10
2023-02-28T06:53:34.478Z,10.15
2023-02-28T06:56:06.565Z,6.13
2023-02-28T06:58:34.572Z,8.40
2023-02-28T07:01:02.277Z,11.07
2023-02-28T07:03:29.975Z,5.60
2023-02-28T07:05:58.278Z,7.38
2023-02-28T07:08:28.578Z,6.13
2023-02-28T07:10:57.112Z,6.55
2023-02-28T07:13:25.570Z,6.65
2023-02-28T07:15:57.521Z,5.80
2023-02-28T07:18:25.933Z,5.75
2023-02-28T07:20:54.024Z,4.10
2023-02-28T07:23:22.423Z,7.70
2023-02-28T07:25:52.228Z,4.70
2023-02-28T07:28:19.978Z,3.97
2023-02-28T07:30:49.077Z,4.63
2023-02-28T07:33:17.258Z,3.53
2023-02-28T07:35:45.291Z,5.25
2023-02-28T07:38:14.605Z,3.83
2023-02-28T07:40:42.364Z,8.38
2023-02-28T07:43:11.486Z,4.47
2023-02-28T07:45:39.320Z,4.22
2023-02-28T07:48:07.741Z,3.47
2023-02-28T07:50:36.001Z,5.07
2023-02-28T07:53:03.862Z,5.72
2023-02-28T07:55:31.626Z,4.75
2023-02-28T07:57:59.843Z,5.90
2023-02-28T08:00:30.023Z,5.13
2023-02-28T08:02:57.781Z,4.20
2023-02-28T08:05:25.600Z,6.20
2023-02-28T08:07:54.317Z,4.38
2023-02-28T08:10:22.057Z,3.20
2023-02-28T08:12:49.858Z,3.42
2023-02-28T08:15:17.839Z,3.45
2023-02-28T08:17:47.009Z,2.90
2023-02-28T08:20:14.877Z,5.10
2023-02-28T08:22:44.802Z,3.92
2023-02-28T08:25:15.675Z,6.35
2023-02-28T08:27:43.685Z,4.85
2023-02-28T08:30:13.263Z,6.15
2023-02-28T08:32:41.463Z,4.40
2023-02-28T08:35:11.531Z,7.28
2023-02-28T08:37:39.363Z,5.55
2023-02-28T08:40:08.617Z,4.18
2023-02-28T08:42:36.472Z,6.55
2023-02-28T08:45:04.518Z,6.18
2023-02-28T08:47:32.277Z,2.83
2023-02-28T08:49:59.964Z,2.67
2023-02-28T08:52:29.052Z,2.53
2023-02-28T08:54:56.950Z,6.47
2023-02-28T08:57:26.884Z,4.97
2023-02-28T08:59:54.626Z,5.00
2023-02-28T09:02:22.371Z,4.95
2023-02-28T09:04:50.093Z,4.60
2023-02-28T09:07:17.778Z,3.97
2023-02-28T09:09:56.641Z,2.33
2023-02-28T09:12:25.037Z,3.10
2023-02-28T09:14:52.848Z,3.25
2023-02-28T09:17:20.800Z,4.07
2023-02-28T09:19:50.190Z,3.88
2023-02-28T09:22:18.010Z,2.75
2023-02-28T09:24:47.089Z,3.58
2023-02-28T09:27:14.854Z,5.13
2023-02-28T09:29:42.689Z,2.85
2023-02-28T09:32:10.940Z,2.78
2023-02-28T09:34:39.886Z,3.00
2023-02-28T09:37:07.717Z,4.22
2023-02-28T09:39:35.534Z,3.53
2023-02-28T09:42:08.661Z,3.17
2023-02-28T09:44:40.101Z,3.63
2023-02-28T09:47:15.138Z,2.88
2023-02-28T09:49:47.231Z,3.40
2023-02-28T09:52:20.503Z,2.22
2023-02-28T09:54:48.415Z,2.63
2023-02-28T09:57:28.018Z,2.40
2023-02-28T10:00:11.340Z,1.75
2023-02-28T10:03:00.980Z,2.60
2023-02-28T10:05:32.637Z,3.42
2023-02-28T10:08:09.667Z,4.30
2023-02-28T10:13:21.350Z,2.22
2023-02-28T10:15:52.300Z,1.77
2023-02-28T10:18:26.617Z,5.30
2023-02-28T10:20:56.817Z,3.30
2023-02-28T10:23:30.184Z,2.38
2023-02-28T10:26:02.271Z,2.50
2023-02-28T10:28:32.941Z,2.83
2023-02-28T10:31:01.344Z,3.92
2023-02-28T10:33:31.999Z,2.65
2023-02-28T10:36:00.977Z,3.28
2023-02-28T10:38:30.227Z,2.53
2023-02-28T10:41:06.833Z,2.05
2023-02-28T10:43:36.849Z,2.83
2023-02-28T10:46:07.364Z,2.50
2023-02-28T10:48:37.913Z,3.78
2023-02-28T10:51:08.946Z,2.50
2023-02-28T10:53:57.682Z,3.25
2023-02-28T10:56:28.885Z,3.13
2023-02-28T10:59:00.286Z,3.72
2023-02-28T11:01:39.448Z,2.25
2023-02-28T11:04:19.922Z,3.70
2023-02-28T11:06:48.348Z,2.30
2023-02-28T11:09:25.447Z,3.88
2023-02-28T11:11:53.976Z,4.88
2023-02-28T11:14:26.117Z,2.58
2023-02-28T11:16:55.138Z,3.03
2023-02-28T11:19:27.638Z,2.53
2023-02-28T11:21:58.735Z,2.20
2023-02-28T11:24:32.415Z,2.10
2023-02-28T11:27:00.293Z,2.53
2023-02-28T11:29:31.953Z,3.60
2023-02-28T11:32:06.237Z,3.25
2023-02-28T11:34:34.681Z,5.50
2023-02-28T11:37:05.874Z,6.18
2023-02-28T11:39:34.603Z,4.80
2023-02-28T11:42:17.050Z,2.85
2023-02-28T11:44:57.404Z,3.45
2023-02-28T11:47:35.116Z,4.85
2023-02-28T11:50:22.559Z,2.67
2023-02-28T11:52:54.385Z,2.95
2023-02-28T11:55:27.564Z,3.95
2023-02-28T11:58:07.779Z,4.38
2023-02-28T12:00:55.149Z,3.67
2023-02-28T12:03:31.053Z,2.42
2023-02-28T12:06:09.524Z,2.35
2023-02-28T12:08:49.315Z,3.40
2023-02-28T12:11:29.138Z,6.40
2023-02-28T12:14:24.288Z,3.35
2023-02-28T12:17:05.696Z,2.85
2023-02-28T12:19:44.600Z,2.40
2023-02-28T12:22:29.172Z,4.00
2023-02-28T12:25:25.914Z,3.58
2023-02-28T12:27:55.173Z,2.03
2023-02-28T12:30:26.561Z,2.92
2023-02-28T12:33:00.232Z,2.60
2023-02-28T12:35:35.706Z,4.07
2023-02-28T12:38:08.136Z,3.55
2023-02-28T12:40:47.093Z,2.80
2023-02-28T12:43:18.309Z,2.85
2023-02-28T12:45:50.814Z,3.92
2023-02-28T12:48:26.244Z,2.38
2023-02-28T12:50:54.200Z,2.67
2023-02-28T12:53:29.782Z,3.80
2023-02-28T12:56:11.588Z,3.92
2023-02-28T12:58:45.234Z,3.42
2023-02-28T13:01:38.465Z,3.03
2023-02-28T13:04:32.214Z,2.35
2023-02-28T13:07:17.843Z,2.53
2023-02-28T13:09:54.742Z,3.63
2023-02-28T13:12:23.809Z,2.45
2023-02-28T13:14:52.287Z,3.53
2023-02-28T13:17:22.302Z,2.70
2023-02-28T13:20:01.336Z,2.63
2023-02-28T13:22:41.872Z,1.80
2023-02-28T13:25:42.984Z,2.20
2023-02-28T13:28:12.370Z,3.50
2023-02-28T13:31:06.046Z,2.20
2023-02-28T13:33:35.029Z,2.38
2023-02-28T13:36:11.312Z,2.72
2023-02-28T13:38:42.444Z,3.63
2023-02-28T13:41:48.423Z,4.70
2023-02-28T13:44:19.227Z,2.65
2023-02-28T13:47:26.697Z,4.63
2023-02-28T13:49:55.013Z,2.75
2023-02-28T13:52:26.694Z,7.97
2023-02-28T13:55:26.365Z,3.72
2023-02-28T13:58:13.910Z,2.33
2023-02-28T14:01:02.119Z,4.57
2023-02-28T14:03:47.031Z,3.00
2023-02-28T14:06:24.710Z,2.47
2023-02-28T14:09:00.984Z,3.70
2023-02-28T14:11:32.999Z,2.30
2023-02-28T14:14:02.190Z,4.55
2023-02-28T14:16:40.302Z,3.13
2023-02-28T14:19:14.791Z,4.28
2023-02-28T14:21:54.564Z,3.67
2023-02-28T14:24:45.527Z,5.63
2023-02-28T14:27:31.800Z,1.92
2023-02-28T14:30:47.348Z,4.30
2023-02-28T14:33:45.503Z,2.95
2023-02-28T14:38:48.153Z,3.92
2023-02-28T14:41:24.132Z,3.40
2023-02-28T14:43:55.785Z,2.90
2023-02-28T14:46:28.322Z,3.38
2023-02-28T14:48:56.672Z,4.25
2023-02-28T14:51:25.911Z,2.85
2023-02-28T14:53:59.409Z,5.70
2023-02-28T14:56:32.977Z,4.28
2023-02-28T14:59:00.710Z,3.00
2023-02-28T15:01:28.588Z,4.88
2023-02-28T15:04:04.783Z,3.95
2023-02-28T15:06:33.870Z,4.90
2023-02-28T15:09:19.475Z,4.88
2023-02-28T15:11:51.964Z,2.00
2023-02-28T15:14:22.269Z,4.78
2023-02-28T15:16:54.655Z,2.72
2023-02-28T15:19:26.343Z,3.75
2023-02-28T15:21:59.832Z,3.25
2023-02-28T15:24:37.106Z,1.90
2023-02-28T15:27:08.642Z,3.28
2023-02-28T15:29:45.209Z,2.22
2023-02-28T15:32:28.294Z,3.40
2023-02-28T15:34:56.875Z,3.20
2023-02-28T15:37:39.743Z,4.70
2023-02-28T15:40:15.138Z,3.28
2023-02-28T15:42:45.656Z,3.22
2023-02-28T15:45:30.828Z,2.78
2023-02-28T15:48:12.288Z,2.17
2023-02-28T15:50:42.221Z,3.17
2023-02-28T15:53:15.802Z,3.30
2023-02-28T15:55:43.963Z,3.90
2023-02-28T15:58:14.920Z,4.40
2023-02-28T16:00:50.477Z,3.47
2023-02-28T16:03:29.115Z,2.97
2023-02-28T16:06:28.113Z,2.55
2023-02-28T16:08:55.884Z,3.33
2023-02-28T16:11:24.142Z,2.95
2023-02-28T16:13:54.377Z,3.33
2023-02-28T16:16:25.565Z,4.25
2023-02-28T16:18:54.056Z,3.35
2023-02-28T16:21:21.851Z,3.08
2023-02-28T16:23:49.586Z,3.55
2023-02-28T16:26:23.383Z,3.88
2023-02-28T16:28:53.457Z,3.55
2023-02-28T16:31:22.087Z,2.90
2023-02-28T16:33:49.862Z,3.20
2023-02-28T16:36:19.925Z,2.53
2023-02-28T16:38:47.772Z,2.47
2023-02-28T16:41:19.973Z,5.07
2023-02-28T16:43:50.377Z,3.67
2023-02-28T16:46:20.595Z,3.60
2023-02-28T16:48:52.132Z,3.30
2023-02-28T16:51:20.257Z,5.30
2023-02-28T16:53:48.229Z,2.38
2023-02-28T16:56:19.182Z,2.90
2023-02-28T16:58:47.704Z,4.72
2023-02-28T17:01:16.091Z,3.30
2023-02-28T17:03:45.325Z,3.10
2023-02-28T17:06:19.988Z,5.07
2023-02-28T17:08:48.182Z,2.92
2023-02-28T17:11:15.908Z,4.70
2023-02-28T17:13:43.622Z,3.92
2023-02-28T17:16:20.253Z,2.70
2023-02-28T17:18:49.473Z,3.30
2023-02-28T17:21:17.970Z,2.78
2023-02-28T17:23:45.865Z,2.35
2023-02-28T17:26:18.486Z,3.03
2023-02-28T17:28:46.192Z,2.60
2023-02-28T17:31:14.597Z,5.25
2023-02-28T17:33:42.550Z,3.63
2023-02-28T17:36:15.958Z,4.30
2023-02-28T17:38:44.125Z,4.82
2023-02-28T17:41:12.921Z,5.40
2023-02-28T17:43:41.234Z,5.78
2023-02-28T17:46:18.706Z,3.22
2023-02-28T17:48:46.573Z,3.75
2023-02-28T17:51:17.248Z,3.08
2023-02-28T17:53:45.202Z,3.70
2023-02-28T17:56:15.189Z,3.33
2023-02-28T17:58:43.063Z,7.78
2023-02-28T18:01:10.896Z,3.75
2023-02-28T18:03:38.736Z,4.00
2023-02-28T18:06:07.325Z,4.05
2023-02-28T18:08:37.044Z,4.32
2023-02-28T18:11:04.901Z,4.63
2023-02-28T18:13:32.598Z,3.65
2023-02-28T18:16:00.481Z,4.03
2023-02-28T18:18:28.550Z,5.65
2023-02-28T18:20:56.462Z,4.65
2023-02-28T18:23:24.196Z,3.90
2023-02-28T18:25:54.078Z,5.00
2023-02-28T18:28:21.799Z,5.38
2023-02-28T18:30:49.476Z,6.60
2023-02-28T18:33:17.534Z,2.90
2023-02-28T18:35:45.470Z,3.95
2023-02-28T18:38:16.000Z,3.78
2023-02-28T18:40:44.901Z,5.35
2023-02-28T18:43:15.134Z,3.33
2023-02-28T18:45:43.273Z,4.13
2023-02-28T18:48:11.050Z,5.47
2023-02-28T18:50:39.738Z,4.65
2023-02-28T18:53:07.466Z,4.03
2023-02-28T18:55:35.375Z,3.85
2023-02-28T18:58:03.223Z,4.95
2023-02-28T19:00:32.426Z,3.35
2023-02-28T19:03:00.315Z,5.72
2023-02-28T19:05:30.996Z,3.47
2023-02-28T19:07:58.771Z,6.15
2023-02-28T19:10:26.537Z,4.63
2023-02-28T19:12:54.279Z,4.47
2023-02-28T19:15:22.133Z,4.53
2023-02-28T19:17:51.246Z,4.95
2023-02-28T19:20:19.824Z,3.45
2023-02-28T19:22:47.554Z,4.47
2023-02-28T19:25:15.332Z,4.72
2023-02-28T19:27:43.701Z,5.85
2023-02-28T19:30:12.726Z,4.68
2023-02-28T19:32:40.523Z,4.03
2023-02-28T19:35:10.333Z,4.63
2023-02-28T19:37:39.275Z,5.60
2023-02-28T19:40:08.769Z,3.67
2023-02-28T19:42:36.858Z,3.92
2023-02-28T19:45:05.536Z,4.10
2023-02-28T19:47:33.273Z,6.20
2023-02-28T19:50:02.263Z,5.20
2023-02-28T19:52:31.332Z,4.72
2023-02-28T19:54:59.094Z,5.20
2023-02-28T19:57:26.998Z,7.35
2023-02-28T19:59:54.706Z,6.38
2023-02-28T20:02:23.086Z,4.38
2023-02-28T20:04:52.063Z,5.45
2023-02-28T20:07:21.201Z,4.35
2023-02-28T20:09:50.416Z,5.68
2023-02-28T20:12:26.144Z,4.85
2023-02-28T20:14:55.997Z,5.75
2023-02-28T20:17:24.298Z,5.60
2023-02-28T20:19:52.063Z,5.25
2023-02-28T20:22:19.827Z,6.18
2023-02-28T20:24:50.901Z,4.72
2023-02-28T20:27:18.648Z,6.20
2023-02-28T20:29:46.378Z,10.05
2023-02-28T20:32:14.227Z,7.53
2023-02-28T20:34:42.187Z,5.68
2023-02-28T20:37:09.893Z,4.88
2023-02-28T20:39:37.684Z,5.53
2023-02-28T20:42:07.299Z,5.60
2023-02-28T20:44:35.045Z,5.03
2023-02-28T20:47:03.721Z,5.13
2023-02-28T20:49:31.503Z,4.95
2023-02-28T20:51:59.296Z,3.95
2023-02-28T20:54:28.679Z,5.65
2023-02-28T20:56:56.405Z,5.25
2023-02-28T20:59:26.285Z,6.43
2023-02-28T21:01:56.242Z,6.50
2023-02-28T21:04:24.053Z,6.95
2023-02-28T21:06:51.947Z,7.45
2023-02-28T21:09:20.334Z,5.82
2023-02-28T21:11:48.301Z,6.35
2023-02-28T21:14:17.666Z,5.45
2023-02-28T21:16:46.934Z,6.88
2023-02-28T21:19:14.752Z,7.55
2023-02-28T21:21:44.973Z,7.30
2023-02-28T21:24:14.016Z,4.88
2023-02-28T21:26:44.354Z,7.13
2023-02-28T21:29:13.484Z,5.28
2023-02-28T21:31:41.547Z,8.65
2023-02-28T21:34:13.329Z,6.05
2023-02-28T21:36:45.610Z,7.38
2023-02-28T21:39:16.308Z,7.38
2023-02-28T21:41:44.292Z,5.45
2023-02-28T21:44:18.757Z,6.97
2023-02-28T21:46:47.504Z,6.70
2023-02-28T21:49:17.427Z,6.30
2023-02-28T21:51:45.565Z,5.45
2023-02-28T21:54:13.885Z,5.15
2023-02-28T21:56:42.136Z,5.93
2023-02-28T21:59:09.865Z,4.60
2023-02-28T22:01:39.470Z,5.18
2023-02-28T22:04:08.863Z,5.22
2023-02-28T22:06:40.898Z,5.72
2023-02-28T22:09:10.543Z,4.97
2023-02-28T22:11:39.354Z,6.28
2023-02-28T22:14:09.321Z,5.00
2023-02-28T22:16:50.634Z,4.32
2023-02-28T22:19:20.068Z,7.82
2023-02-28T22:21:49.843Z,6.60
2023-02-28T22:24:20.566Z,7.15
2023-02-28T22:26:50.450Z,6.65
2023-02-28T22:29:18.288Z,6.93
2023-02-28T22:31:46.449Z,5.57
2023-02-28T22:34:14.704Z,5.20
2023-02-28T22:36:43.132Z,5.68
2023-02-28T22:39:13.053Z,6.78
2023-02-28T22:41:41.229Z,6.95
2023-02-28T22:44:09.249Z,5.25
2023-02-28T22:46:37.306Z,7.80
2023-02-28T22:49:06.675Z,5.88
2023-02-28T22:51:35.168Z,5.80
2023-02-28T22:54:04.445Z,5.88
2023-02-28T22:56:33.845Z,8.70
2023-02-28T22:59:02.503Z,6.55
2023-02-28T23:01:32.719Z,7.38
2023-02-28T23:04:02.758Z,5.90
2023-02-28T23:06:33.515Z,5.25
2023-02-28T23:09:03.285Z,6.63
2023-02-28T23:11:35.165Z,6.30
2023-02-28T23:14:02.963Z,5.63
2023-02-28T23:16:32.791Z,6.63
2023-02-28T23:19:02.834Z,5.05
2023-02-28T23:21:31.104Z,10.05
2023-02-28T23:23:59.159Z,7.72
2023-02-28T23:26:26.857Z,8.63
2023-02-28T23:28:56.139Z,11.88
2023-02-28T23:31:24.087Z,6.50
2023-02-28T23:33:52.084Z,6.22
2023-02-28T23:36:20.097Z,6.03
2023-02-28T23:38:49.417Z,6.90
2023-02-28T23:41:18.076Z,5.80
2023-02-28T23:43:46.523Z,6.50
2023-02-28T23:46:16.556Z,5.13
2023-02-28T23:48:44.279Z,8.30
2023-02-28T23:51:14.753Z,5.63
2023-02-28T23:53:44.946Z,5.50
2023-02-28T23:56:15.202Z,8.05
2023-02-28T23:58:43.718Z,6.22
